sensor_id;sensor_type;location;lat;lon;timestamp;pressure;altitude;pressure_sealevel;temperature;humidity
18275;BME280;19470;49.322;7.218;2024-02-15T00:01:43;99119.66;;;15.55;97.08
18275;BME280;19470;49.322;7.218;2024-02-15T00:04:10;99118.97;;;16.01;95.35
18275;BME280;19470;49.322;7.218;2024-02-15T00:06:36;99116.53;;;15.79;96.26
18275;BME280;19470;49.322;7.218;2024-02-15T00:09:03;99107.88;;;15.41;96.19
18275;BME280;19470;49.322;7.218;2024-02-15T00:11:29;99111.66;;;15.60;97.50
18275;BME280;19470;49.322;7.218;2024-02-15T00:13:56;99100.97;;;15.45;99.33
18275;BME280;19470;49.322;7.218;2024-02-15T00:16:23;99109.75;;;15.46;99.12
18275;BME280;19470;49.322;7.218;2024-02-15T00:18:51;99104.50;;;15.66;98.20
18275;BME280;19470;49.322;7.218;2024-02-15T00:21:18;99107.72;;;15.68;98.10
18275;BME280;19470;49.322;7.218;2024-02-15T00:23:44;99109.38;;;16.10;95.36
18275;BME280;19470;49.322;7.218;2024-02-15T00:26:11;99113.34;;;16.13;93.85
18275;BME280;19470;49.322;7.218;2024-02-15T00:28:37;99108.50;;;15.69;94.66
18275;BME280;19470;49.322;7.218;2024-02-15T00:31:04;99109.75;;;15.41;96.90
18275;BME280;19470;49.322;7.218;2024-02-15T00:33:30;99105.06;;;15.94;96.40
18275;BME280;19470;49.322;7.218;2024-02-15T00:35:58;99108.75;;;15.62;98.91
18275;BME280;19470;49.322;7.218;2024-02-15T00:38:25;99110.16;;;16.05;95.18
18275;BME280;19470;49.322;7.218;2024-02-15T00:40:52;99106.13;;;15.72;97.21
18275;BME280;19470;49.322;7.218;2024-02-15T00:43:18;99098.13;;;16.08;95.50
18275;BME280;19470;49.322;7.218;2024-02-15T00:45:45;99110.44;;;16.24;94.21
18275;BME280;19470;49.322;7.218;2024-02-15T00:48:11;99105.06;;;16.09;94.04
18275;BME280;19470;49.322;7.218;2024-02-15T00:50:38;99104.53;;;16.02;95.34
18275;BME280;19470;49.322;7.218;2024-02-15T00:53:06;99104.53;;;16.02;95.25
18275;BME280;19470;49.322;7.218;2024-02-15T00:55:32;99104.03;;;16.10;94.13
18275;BME280;19470;49.322;7.218;2024-02-15T00:57:59;99105.34;;;15.77;96.70
18275;BME280;19470;49.322;7.218;2024-02-15T01:00:25;99102.56;;;15.46;96.23
18275;BME280;19470;49.322;7.218;2024-02-15T01:02:53;99104.53;;;16.07;95.00
18275;BME280;19470;49.322;7.218;2024-02-15T01:05:20;99097.56;;;15.65;98.11
18275;BME280;19470;49.322;7.218;2024-02-15T01:07:47;99104.81;;;16.00;96.21
18275;BME280;19470;49.322;7.218;2024-02-15T01:10:15;99098.94;;;15.93;95.85
18275;BME280;19470;49.322;7.218;2024-02-15T01:12:42;99101.88;;;16.02;93.28
18275;BME280;19470;49.322;7.218;2024-02-15T01:15:09;99093.84;;;16.07;93.20
18275;BME280;19470;49.322;7.218;2024-02-15T01:17:35;99093.84;;;15.87;95.52
18275;BME280;19470;49.322;7.218;2024-02-15T01:20:02;99104.50;;;15.71;97.03
18275;BME280;19470;49.322;7.218;2024-02-15T01:22:29;99096.53;;;16.12;93.98
18275;BME280;19470;49.322;7.218;2024-02-15T01:24:56;99097.56;;;15.65;96.79
18275;BME280;19470;49.322;7.218;2024-02-15T01:27:24;99093.84;;;15.76;96.32
18275;BME280;19470;49.322;7.218;2024-02-15T01:29:52;99096.47;;;15.66;98.94
18275;BME280;19470;49.322;7.218;2024-02-15T01:32:20;99091.47;;;16.05;95.59
18275;BME280;19470;49.322;7.218;2024-02-15T01:34:47;99087.47;;;16.23;93.61
18275;BME280;19470;49.322;7.218;2024-02-15T01:37:13;99091.97;;;16.13;93.58
18275;BME280;19470;49.322;7.218;2024-02-15T01:39:40;99096.00;;;16.25;93.00
18275;BME280;19470;49.322;7.218;2024-02-15T01:42:06;99091.75;;;16.14;92.35
18275;BME280;19470;49.322;7.218;2024-02-15T01:44:34;99093.06;;;15.86;95.01
18275;BME280;19470;49.322;7.218;2024-02-15T01:47:02;99091.75;;;16.14;93.94
18275;BME280;19470;49.322;7.218;2024-02-15T01:49:29;99091.97;;;16.23;92.64
18275;BME280;19470;49.322;7.218;2024-02-15T01:51:56;99091.97;;;15.77;95.39
18275;BME280;19470;49.322;7.218;2024-02-15T01:54:23;99078.34;;;16.04;93.75
18275;BME280;19470;49.322;7.218;2024-02-15T01:56:50;99078.09;;;16.00;94.18
18275;BME280;19470;49.322;7.218;2024-02-15T01:59:17;99082.09;;;16.03;93.58
18275;BME280;19470;49.322;7.218;2024-02-15T02:01:45;99076.25;;;15.91;94.57
18275;BME280;19470;49.322;7.218;2024-02-15T02:04:12;99082.84;;;15.63;96.29
18275;BME280;19470;49.322;7.218;2024-02-15T02:06:39;99074.88;;;15.78;95.65
18275;BME280;19470;49.322;7.218;2024-02-15T02:09:12;99078.88;;;15.80;94.91
18275;BME280;19470;49.322;7.218;2024-02-15T02:11:39;99071.38;;;15.62;95.97
18275;BME280;19470;49.322;7.218;2024-02-15T02:14:06;99077.56;;;15.78;95.14
18275;BME280;19470;49.322;7.218;2024-02-15T02:16:33;99078.50;;;15.36;97.00
18275;BME280;19470;49.322;7.218;2024-02-15T02:19:02;99075.59;;;15.48;96.82
18275;BME280;19470;49.322;7.218;2024-02-15T02:21:33;99084.72;;;15.62;97.16
18275;BME280;19470;49.322;7.218;2024-02-15T02:24:02;99080.97;;;15.53;97.97
18275;BME280;19470;49.322;7.218;2024-02-15T02:26:33;99069.81;;;15.81;95.56
18275;BME280;19470;49.322;7.218;2024-02-15T02:29:00;99070.06;;;15.85;94.73
18275;BME280;19470;49.322;7.218;2024-02-15T02:31:32;99065.28;;;15.82;93.83
18275;BME280;19470;49.322;7.218;2024-02-15T02:33:59;99066.28;;;15.55;95.05
18275;BME280;19470;49.322;7.218;2024-02-15T02:36:26;99062.84;;;15.65;95.66
18275;BME280;19470;49.322;7.218;2024-02-15T02:38:54;99064.38;;;15.46;96.23
18275;BME280;19470;49.322;7.218;2024-02-15T02:41:25;99062.25;;;15.48;96.95
18275;BME280;19470;49.322;7.218;2024-02-15T02:43:53;99067.63;;;15.58;95.24
18275;BME280;19470;49.322;7.218;2024-02-15T02:46:20;99061.25;;;15.64;95.60
18275;BME280;19470;49.322;7.218;2024-02-15T02:48:46;99073.00;;;15.83;94.42
18275;BME280;19470;49.322;7.218;2024-02-15T02:51:13;99061.72;;;15.51;95.86
18275;BME280;19470;49.322;7.218;2024-02-15T02:53:39;99071.00;;;15.28;96.88
18275;BME280;19470;49.322;7.218;2024-02-15T02:56:06;99068.47;;;15.64;95.11
18275;BME280;19470;49.322;7.218;2024-02-15T02:58:33;99061.25;;;15.74;94.19
18275;BME280;19470;49.322;7.218;2024-02-15T03:01:01;99064.69;;;15.59;95.12
18275;BME280;19470;49.322;7.218;2024-02-15T03:03:30;99057.97;;;15.42;95.56
18275;BME280;19470;49.322;7.218;2024-02-15T03:05:57;99061.97;;;15.39;96.94
18275;BME280;19470;49.322;7.218;2024-02-15T03:08:24;99057.63;;;15.13;98.33
18275;BME280;19470;49.322;7.218;2024-02-15T03:10:50;99063.06;;;15.43;96.89
18275;BME280;19470;49.322;7.218;2024-02-15T03:13:18;99060.69;;;15.62;95.92
18275;BME280;19470;49.322;7.218;2024-02-15T03:15:45;99070.88;;;15.75;94.69
18275;BME280;19470;49.322;7.218;2024-02-15T03:18:14;99063.41;;;15.67;95.20
18275;BME280;19470;49.322;7.218;2024-02-15T03:20:41;99052.13;;;15.50;96.05
18275;BME280;19470;49.322;7.218;2024-02-15T03:23:08;99053.72;;;15.56;95.76
18275;BME280;19470;49.322;7.218;2024-02-15T03:25:36;99052.72;;;15.72;95.28
18275;BME280;19470;49.322;7.218;2024-02-15T03:28:03;99054.84;;;15.65;94.45
18275;BME280;19470;49.322;7.218;2024-02-15T03:30:32;99051.53;;;15.27;96.09
18275;BME280;19470;49.322;7.218;2024-02-15T03:32:59;99054.19;;;15.22;98.76
18275;BME280;19470;49.322;7.218;2024-02-15T03:35:27;99049.16;;;15.31;98.16
18275;BME280;19470;49.322;7.218;2024-02-15T03:37:57;99046.16;;;15.17;99.47
18275;BME280;19470;49.322;7.218;2024-02-15T03:40:24;99043.03;;;15.41;98.07
18275;BME280;19470;49.322;7.218;2024-02-15T03:42:52;99047.88;;;15.59;95.14
18275;BME280;19470;49.322;7.218;2024-02-15T03:45:20;99047.91;;;15.64;95.34
18275;BME280;19470;49.322;7.218;2024-02-15T03:47:50;99043.34;;;15.65;94.89
18275;BME280;19470;49.322;7.218;2024-02-15T03:50:16;99042.97;;;15.15;97.29
18275;BME280;19470;49.322;7.218;2024-02-15T03:52:45;99050.53;;;15.59;95.25
18275;BME280;19470;49.322;7.218;2024-02-15T03:55:12;99041.44;;;15.40;95.94
18275;BME280;19470;49.322;7.218;2024-02-15T03:57:39;99041.94;;;15.26;97.14
18275;BME280;19470;49.322;7.218;2024-02-15T04:00:07;99042.75;;;15.37;97.18
18275;BME280;19470;49.322;7.218;2024-02-15T04:02:36;99045.69;;;15.41;95.12
18275;BME280;19470;49.322;7.218;2024-02-15T04:05:06;99049.16;;;15.31;94.97
18275;BME280;19470;49.322;7.218;2024-02-15T04:07:33;99051.81;;;15.36;95.34
18275;BME280;19470;49.322;7.218;2024-02-15T04:10:01;99039.59;;;15.55;93.97
18275;BME280;19470;49.322;7.218;2024-02-15T04:12:27;99040.38;;;15.56;93.38
18275;BME280;19470;49.322;7.218;2024-02-15T04:14:54;99045.91;;;15.19;96.05
18275;BME280;19470;49.322;7.218;2024-02-15T04:17:21;99041.88;;;15.06;95.28
18275;BME280;19470;49.322;7.218;2024-02-15T04:19:48;99044.31;;;15.28;95.42
18275;BME280;19470;49.322;7.218;2024-02-15T04:22:15;99045.41;;;15.42;93.64
18275;BME280;19470;49.322;7.218;2024-02-15T04:24:42;99045.19;;;14.76;95.07
18275;BME280;19470;49.322;7.218;2024-02-15T04:27:11;99052.59;;;14.59;97.44
18275;BME280;19470;49.322;7.218;2024-02-15T04:29:39;99046.53;;;14.68;97.58
18275;BME280;19470;49.322;7.218;2024-02-15T04:32:06;99043.13;;;14.83;96.74
18275;BME280;19470;49.322;7.218;2024-02-15T04:34:35;99049.44;;;14.67;97.13
18275;BME280;19470;49.322;7.218;2024-02-15T04:37:02;99050.78;;;14.69;97.26
18275;BME280;19470;49.322;7.218;2024-02-15T04:39:31;99055.09;;;14.80;97.68
18275;BME280;19470;49.322;7.218;2024-02-15T04:41:58;99053.44;;;14.69;95.05
18275;BME280;19470;49.322;7.218;2024-02-15T04:44:26;99052.47;;;14.96;93.65
18275;BME280;19470;49.322;7.218;2024-02-15T04:46:53;99049.75;;;14.33;97.08
18275;BME280;19470;49.322;7.218;2024-02-15T04:49:20;99045.25;;;14.39;98.62
18275;BME280;19470;49.322;7.218;2024-02-15T04:51:48;99041.53;;;14.40;98.44
18275;BME280;19470;49.322;7.218;2024-02-15T04:54:14;99036.84;;;14.57;97.05
18275;BME280;19470;49.322;7.218;2024-02-15T04:56:43;99045.25;;;14.44;96.67
18275;BME280;19470;49.322;7.218;2024-02-15T04:59:11;99024.94;;;14.75;95.57
18275;BME280;19470;49.322;7.218;2024-02-15T05:01:42;99025.25;;;14.83;93.78
18275;BME280;19470;49.322;7.218;2024-02-15T05:04:09;99020.47;;;14.96;92.70
18275;BME280;19470;49.322;7.218;2024-02-15T05:06:36;99030.81;;;14.35;95.31
18275;BME280;19470;49.322;7.218;2024-02-15T05:09:03;99018.16;;;14.52;95.18
18275;BME280;19470;49.322;7.218;2024-02-15T05:11:32;99021.63;;;14.52;94.88
18275;BME280;19470;49.322;7.218;2024-02-15T05:14:00;99014.41;;;14.48;94.94
18275;BME280;19470;49.322;7.218;2024-02-15T05:16:27;99016.13;;;14.27;95.67
18275;BME280;19470;49.322;7.218;2024-02-15T05:18:55;99022.69;;;14.09;96.46
18275;BME280;19470;49.322;7.218;2024-02-15T05:21:21;99013.47;;;13.90;98.14
18275;BME280;19470;49.322;7.218;2024-02-15T05:23:47;99009.63;;;14.07;97.54
18275;BME280;19470;49.322;7.218;2024-02-15T05:26:14;99012.13;;;13.87;98.57
18275;BME280;19470;49.322;7.218;2024-02-15T05:28:41;99000.47;;;14.36;96.45
18275;BME280;19470;49.322;7.218;2024-02-15T05:31:12;98996.69;;;14.26;94.39
18275;BME280;19470;49.322;7.218;2024-02-15T05:33:42;98993.22;;;13.84;96.58
18275;BME280;19470;49.322;7.218;2024-02-15T05:36:11;98984.66;;;13.81;97.58
18275;BME280;19470;49.322;7.218;2024-02-15T05:38:37;98980.81;;;13.99;98.17
18275;BME280;19470;49.322;7.218;2024-02-15T05:41:03;98985.44;;;14.19;95.61
18275;BME280;19470;49.322;7.218;2024-02-15T05:43:32;98979.00;;;14.10;97.13
18275;BME280;19470;49.322;7.218;2024-02-15T05:45:59;98982.47;;;14.58;94.04
18275;BME280;19470;49.322;7.218;2024-02-15T05:48:26;98979.81;;;14.58;93.47
18275;BME280;19470;49.322;7.218;2024-02-15T05:50:53;98973.44;;;14.12;94.95
18275;BME280;19470;49.322;7.218;2024-02-15T05:53:21;98972.94;;;14.20;94.63
18275;BME280;19470;49.322;7.218;2024-02-15T05:55:48;98984.22;;;13.95;97.84
18275;BME280;19470;49.322;7.218;2024-02-15T05:58:15;98973.44;;;13.74;100.00
18275;BME280;19470;49.322;7.218;2024-02-15T06:00:42;98979.47;;;14.02;97.94
18275;BME280;19470;49.322;7.218;2024-02-15T06:03:09;98975.13;;;13.86;98.47
18275;BME280;19470;49.322;7.218;2024-02-15T06:05:37;98982.78;;;14.19;97.56
18275;BME280;19470;49.322;7.218;2024-02-15T06:08:05;98985.41;;;14.51;94.12
18275;BME280;19470;49.322;7.218;2024-02-15T06:10:33;98990.72;;;14.09;96.12
18275;BME280;19470;49.322;7.218;2024-02-15T06:12:59;98978.56;;;14.23;95.64
18275;BME280;19470;49.322;7.218;2024-02-15T06:15:26;98977.28;;;14.31;94.02
18275;BME280;19470;49.322;7.218;2024-02-15T06:17:52;98981.91;;;14.03;93.78
18275;BME280;19470;49.322;7.218;2024-02-15T06:20:19;98977.28;;;13.89;94.67
18275;BME280;19470;49.322;7.218;2024-02-15T06:22:46;98982.44;;;13.68;97.34
18275;BME280;19470;49.322;7.218;2024-02-15T06:25:13;98980.19;;;14.29;94.13
18275;BME280;19470;49.322;7.218;2024-02-15T06:27:46;98979.94;;;13.89;95.38
18275;BME280;19470;49.322;7.218;2024-02-15T06:30:14;98983.34;;;13.79;96.53
18275;BME280;19470;49.322;7.218;2024-02-15T06:32:58;98977.13;;;13.73;95.34
18275;BME280;19470;49.322;7.218;2024-02-15T06:35:42;98975.38;;;13.52;96.35
18275;BME280;19470;49.322;7.218;2024-02-15T06:38:26;98975.34;;;13.79;94.85
18275;BME280;19470;49.322;7.218;2024-02-15T06:41:12;98972.00;;;13.62;96.86
18275;BME280;19470;49.322;7.218;2024-02-15T06:43:39;98971.66;;;13.53;97.29
18275;BME280;19470;49.322;7.218;2024-02-15T06:46:06;98967.41;;;13.84;96.91
18275;BME280;19470;49.322;7.218;2024-02-15T06:48:33;98965.28;;;13.91;93.18
18275;BME280;19470;49.322;7.218;2024-02-15T06:51:00;98969.56;;;13.55;95.89
18275;BME280;19470;49.322;7.218;2024-02-15T06:53:28;98972.66;;;13.20;98.35
18275;BME280;19470;49.322;7.218;2024-02-15T06:55:55;98986.16;;;13.67;96.42
18275;BME280;19470;49.322;7.218;2024-02-15T06:58:22;98985.00;;;13.58;98.27
18275;BME280;19470;49.322;7.218;2024-02-15T07:00:50;98986.63;;;13.96;94.51
18275;BME280;19470;49.322;7.218;2024-02-15T07:03:16;98983.56;;;14.15;91.70
18275;BME280;19470;49.322;7.218;2024-02-15T07:05:43;98975.63;;;13.82;91.98
18275;BME280;19470;49.322;7.218;2024-02-15T07:08:09;98981.94;;;13.71;92.57
18275;BME280;19470;49.322;7.218;2024-02-15T07:10:38;98982.56;;;13.84;92.45
18275;BME280;19470;49.322;7.218;2024-02-15T07:13:04;98982.69;;;13.67;93.63
18275;BME280;19470;49.322;7.218;2024-02-15T07:15:32;98982.25;;;13.48;96.41
18275;BME280;19470;49.322;7.218;2024-02-15T07:18:04;98980.84;;;13.40;96.58
18275;BME280;19470;49.322;7.218;2024-02-15T07:20:32;98979.38;;;13.22;98.21
18275;BME280;19470;49.322;7.218;2024-02-15T07:22:59;98988.13;;;13.50;96.97
18275;BME280;19470;49.322;7.218;2024-02-15T07:25:25;98989.41;;;13.20;98.36
18275;BME280;19470;49.322;7.218;2024-02-15T07:27:52;98995.06;;;13.51;96.74
18275;BME280;19470;49.322;7.218;2024-02-15T07:30:19;98992.19;;;13.58;95.80
18275;BME280;19470;49.322;7.218;2024-02-15T07:32:45;99002.34;;;13.61;94.49
18275;BME280;19470;49.322;7.218;2024-02-15T07:35:13;99004.09;;;13.50;96.01
18275;BME280;19470;49.322;7.218;2024-02-15T07:37:51;99002.75;;;13.79;94.14
18275;BME280;19470;49.322;7.218;2024-02-15T07:40:17;99010.13;;;13.40;99.02
18275;BME280;19470;49.322;7.218;2024-02-15T07:42:47;99010.97;;;14.10;93.62
18275;BME280;19470;49.322;7.218;2024-02-15T07:45:14;99009.34;;;14.09;95.82
18275;BME280;19470;49.322;7.218;2024-02-15T07:47:40;99007.84;;;14.23;97.48
18275;BME280;19470;49.322;7.218;2024-02-15T07:50:07;99012.25;;;15.07;91.57
18275;BME280;19470;49.322;7.218;2024-02-15T07:52:36;98989.13;;;15.59;87.47
18275;BME280;19470;49.322;7.218;2024-02-15T07:55:03;98984.34;;;15.66;87.22
18275;BME280;19470;49.322;7.218;2024-02-15T07:57:34;98990.72;;;15.29;89.38
18275;BME280;19470;49.322;7.218;2024-02-15T08:00:00;98982.44;;;15.46;90.54
18275;BME280;19470;49.322;7.218;2024-02-15T08:02:27;98997.72;;;15.87;88.66
18275;BME280;19470;49.322;7.218;2024-02-15T08:04:53;98992.31;;;15.36;92.98
18275;BME280;19470;49.322;7.218;2024-02-15T08:07:20;98987.50;;;15.48;92.99
18275;BME280;19470;49.322;7.218;2024-02-15T08:09:48;99001.94;;;16.08;90.32
18275;BME280;19470;49.322;7.218;2024-02-15T08:12:16;98993.94;;;16.23;88.51
18275;BME280;19470;49.322;7.218;2024-02-15T08:14:44;98982.63;;;16.42;87.64
18275;BME280;19470;49.322;7.218;2024-02-15T08:17:10;98982.56;;;16.72;86.57
18275;BME280;19470;49.322;7.218;2024-02-15T08:19:39;98988.03;;;16.21;88.75
18275;BME280;19470;49.322;7.218;2024-02-15T08:22:07;98981.78;;;16.72;87.00
18275;BME280;19470;49.322;7.218;2024-02-15T08:24:34;98978.81;;;16.68;86.82
18275;BME280;19470;49.322;7.218;2024-02-15T08:27:03;98977.72;;;16.79;87.29
18275;BME280;19470;49.322;7.218;2024-02-15T08:29:30;98977.50;;;17.20;84.31
18275;BME280;19470;49.322;7.218;2024-02-15T08:31:56;98973.34;;;16.94;84.72
18275;BME280;19470;49.322;7.218;2024-02-15T08:34:24;98980.59;;;17.37;83.55
18275;BME280;19470;49.322;7.218;2024-02-15T08:36:50;98968.34;;;17.66;80.91
18275;BME280;19470;49.322;7.218;2024-02-15T08:39:17;98976.94;;;17.23;83.52
18275;BME280;19470;49.322;7.218;2024-02-15T08:41:43;98968.56;;;17.74;80.23
18275;BME280;19470;49.322;7.218;2024-02-15T08:44:11;98962.88;;;17.47;80.58
18275;BME280;19470;49.322;7.218;2024-02-15T08:46:40;98962.00;;;17.12;82.41
18275;BME280;19470;49.322;7.218;2024-02-15T08:49:07;98964.06;;;17.25;81.88
18275;BME280;19470;49.322;7.218;2024-02-15T08:51:33;98956.25;;;17.68;80.70
18275;BME280;19470;49.322;7.218;2024-02-15T08:54:00;98961.84;;;17.37;81.02
18275;BME280;19470;49.322;7.218;2024-02-15T08:56:26;98961.16;;;17.61;80.81
18275;BME280;19470;49.322;7.218;2024-02-15T08:58:53;98962.97;;;17.66;80.59
18275;BME280;19470;49.322;7.218;2024-02-15T09:01:20;98960.56;;;17.98;78.14
18275;BME280;19470;49.322;7.218;2024-02-15T09:03:47;98954.94;;;18.24;75.67
18275;BME280;19470;49.322;7.218;2024-02-15T09:06:14;98950.31;;;18.29;75.66
18275;BME280;19470;49.322;7.218;2024-02-15T09:08:40;98948.94;;;18.56;74.63
18275;BME280;19470;49.322;7.218;2024-02-15T09:11:07;98947.47;;;18.45;74.98
18275;BME280;19470;49.322;7.218;2024-02-15T09:13:37;98952.19;;;18.05;76.24
18275;BME280;19470;49.322;7.218;2024-02-15T09:16:04;98948.72;;;18.28;75.24
18275;BME280;19470;49.322;7.218;2024-02-15T09:18:32;98944.59;;;18.84;74.50
18275;BME280;19470;49.322;7.218;2024-02-15T09:20:59;98937.81;;;18.86;71.55
18275;BME280;19470;49.322;7.218;2024-02-15T09:23:26;98951.00;;;18.64;72.86
18275;BME280;19470;49.322;7.218;2024-02-15T09:25:52;98942.41;;;18.86;73.49
18275;BME280;19470;49.322;7.218;2024-02-15T09:28:18;98933.59;;;19.37;70.08
18275;BME280;19470;49.322;7.218;2024-02-15T09:30:47;98935.25;;;19.52;69.51
18275;BME280;19470;49.322;7.218;2024-02-15T09:33:17;98930.22;;;19.97;68.90
18275;BME280;19470;49.322;7.218;2024-02-15T09:35:45;98932.31;;;19.34;69.23
18275;BME280;19470;49.322;7.218;2024-02-15T09:38:12;98925.88;;;19.68;68.97
18275;BME280;19470;49.322;7.218;2024-02-15T09:40:42;98927.72;;;19.86;68.36
18275;BME280;19470;49.322;7.218;2024-02-15T09:43:09;98932.53;;;19.19;70.22
18275;BME280;19470;49.322;7.218;2024-02-15T09:45:35;98928.81;;;19.53;68.87
18275;BME280;19470;49.322;7.218;2024-02-15T09:48:06;98926.03;;;20.04;66.67
18275;BME280;19470;49.322;7.218;2024-02-15T09:50:34;98923.53;;;20.08;66.89
18275;BME280;19470;49.322;7.218;2024-02-15T09:53:02;98917.44;;;19.88;66.29
18275;BME280;19470;49.322;7.218;2024-02-15T09:55:31;98915.50;;;19.42;70.16
18275;BME280;19470;49.322;7.218;2024-02-15T09:58:00;98912.47;;;18.98;70.68
18275;BME280;19470;49.322;7.218;2024-02-15T10:00:27;98907.34;;;19.66;67.83
18275;BME280;19470;49.322;7.218;2024-02-15T10:02:53;98909.63;;;20.33;65.25
18275;BME280;19470;49.322;7.218;2024-02-15T10:05:20;98912.41;;;20.28;64.55
18275;BME280;19470;49.322;7.218;2024-02-15T10:07:48;98913.38;;;19.91;63.86
18275;BME280;19470;49.322;7.218;2024-02-15T10:10:18;98915.78;;;20.20;64.73
18275;BME280;19470;49.322;7.218;2024-02-15T10:12:45;98910.78;;;20.13;64.76
18275;BME280;19470;49.322;7.218;2024-02-15T10:15:27;98906.81;;;20.11;64.76
18275;BME280;19470;49.322;7.218;2024-02-15T10:17:54;98905.19;;;19.69;66.85
18275;BME280;19470;49.322;7.218;2024-02-15T10:20:21;98901.63;;;20.56;64.37
18275;BME280;19470;49.322;7.218;2024-02-15T10:22:51;98899.50;;;20.80;62.49
18275;BME280;19470;49.322;7.218;2024-02-15T10:25:19;98893.16;;;20.21;64.22
18275;BME280;19470;49.322;7.218;2024-02-15T10:27:47;98885.31;;;21.11;62.23
18275;BME280;19470;49.322;7.218;2024-02-15T10:30:15;98888.16;;;20.56;63.55
18275;BME280;19470;49.322;7.218;2024-02-15T10:32:42;98881.91;;;21.19;61.76
18275;BME280;19470;49.322;7.218;2024-02-15T10:35:09;98869.09;;;21.69;59.66
18275;BME280;19470;49.322;7.218;2024-02-15T10:37:40;98857.19;;;21.71;59.92
18275;BME280;19470;49.322;7.218;2024-02-15T10:40:07;98848.78;;;21.72;59.02
18275;BME280;19470;49.322;7.218;2024-02-15T10:43:04;98854.22;;;22.12;57.69
18275;BME280;19470;49.322;7.218;2024-02-15T10:45:32;98862.41;;;22.07;55.78
18275;BME280;19470;49.322;7.218;2024-02-15T10:47:59;98865.06;;;22.47;56.05
18275;BME280;19470;49.322;7.218;2024-02-15T10:50:26;98867.94;;;22.59;54.38
18275;BME280;19470;49.322;7.218;2024-02-15T10:52:56;98867.03;;;23.07;53.30
18275;BME280;19470;49.322;7.218;2024-02-15T10:55:36;98862.81;;;23.53;51.27
18275;BME280;19470;49.322;7.218;2024-02-15T10:58:07;98865.06;;;23.33;52.09
18275;BME280;19470;49.322;7.218;2024-02-15T11:00:34;98853.97;;;23.26;51.51
18275;BME280;19470;49.322;7.218;2024-02-15T11:03:03;98851.78;;;23.11;53.21
18275;BME280;19470;49.322;7.218;2024-02-15T11:05:32;98856.72;;;22.91;54.44
18275;BME280;19470;49.322;7.218;2024-02-15T11:08:02;98851.78;;;23.75;52.05
18275;BME280;19470;49.322;7.218;2024-02-15T11:10:30;98850.94;;;22.50;53.47
18275;BME280;19470;49.322;7.218;2024-02-15T11:12:57;98845.09;;;21.99;56.37
18275;BME280;19470;49.322;7.218;2024-02-15T11:15:45;98844.97;;;23.52;51.82
18275;BME280;19470;49.322;7.218;2024-02-15T11:18:44;98837.72;;;23.43;50.93
18275;BME280;19470;49.322;7.218;2024-02-15T11:21:15;98839.03;;;23.20;51.57
18275;BME280;19470;49.322;7.218;2024-02-15T11:23:41;98839.66;;;23.34;52.67
18275;BME280;19470;49.322;7.218;2024-02-15T11:26:14;98838.41;;;22.71;54.60
18275;BME280;19470;49.322;7.218;2024-02-15T11:28:57;98832.53;;;23.21;51.59
18275;BME280;19470;49.322;7.218;2024-02-15T11:31:53;98819.69;;;23.65;50.71
18275;BME280;19470;49.322;7.218;2024-02-15T11:34:43;98820.63;;;23.69;51.63
18275;BME280;19470;49.322;7.218;2024-02-15T11:40:11;98810.19;;;23.41;49.58
18275;BME280;19470;49.322;7.218;2024-02-15T11:42:40;98811.44;;;22.97;50.12
18275;BME280;19470;49.322;7.218;2024-02-15T11:45:09;98805.69;;;23.71;48.46
18275;BME280;19470;49.322;7.218;2024-02-15T11:47:37;98802.28;;;23.83;48.54
18275;BME280;19470;49.322;7.218;2024-02-15T11:50:08;98800.97;;;23.89;48.95
18275;BME280;19470;49.322;7.218;2024-02-15T11:52:37;98789.13;;;24.03;47.82
18275;BME280;19470;49.322;7.218;2024-02-15T11:55:05;98794.13;;;23.92;48.03
18275;BME280;19470;49.322;7.218;2024-02-15T11:57:35;98782.13;;;24.02;48.05
18275;BME280;19470;49.322;7.218;2024-02-15T12:00:20;98780.53;;;23.24;49.92
18275;BME280;19470;49.322;7.218;2024-02-15T12:03:00;98785.50;;;23.05;49.25
18275;BME280;19470;49.322;7.218;2024-02-15T12:05:47;98781.47;;;23.28;49.15
18275;BME280;19470;49.322;7.218;2024-02-15T12:08:33;98778.66;;;23.16;49.41
18275;BME280;19470;49.322;7.218;2024-02-15T12:11:17;98776.91;;;23.20;48.94
18275;BME280;19470;49.322;7.218;2024-02-15T12:14:01;98778.06;;;22.58;50.89
18275;BME280;19470;49.322;7.218;2024-02-15T12:16:45;98767.38;;;23.14;49.98
18275;BME280;19470;49.322;7.218;2024-02-15T12:19:29;98764.56;;;22.67;51.05
18275;BME280;19470;49.322;7.218;2024-02-15T12:21:57;98755.50;;;22.98;49.07
18275;BME280;19470;49.322;7.218;2024-02-15T12:24:24;98764.09;;;22.82;50.62
18275;BME280;19470;49.322;7.218;2024-02-15T12:26:59;98760.16;;;22.54;51.62
18275;BME280;19470;49.322;7.218;2024-02-15T12:29:26;98757.59;;;22.49;51.67
18275;BME280;19470;49.322;7.218;2024-02-15T12:31:54;98752.69;;;22.68;52.07
18275;BME280;19470;49.322;7.218;2024-02-15T12:34:20;98746.66;;;22.45;51.91
18275;BME280;19470;49.322;7.218;2024-02-15T12:36:47;98745.53;;;22.63;52.00
18275;BME280;19470;49.322;7.218;2024-02-15T12:39:24;98743.00;;;22.50;52.11
18275;BME280;19470;49.322;7.218;2024-02-15T12:41:53;98741.72;;;22.73;51.63
18275;BME280;19470;49.322;7.218;2024-02-15T12:44:19;98735.38;;;22.43;52.04
18275;BME280;19470;49.322;7.218;2024-02-15T12:46:53;98733.16;;;22.36;51.32
18275;BME280;19470;49.322;7.218;2024-02-15T12:49:28;98729.34;;;22.55;51.55
18275;BME280;19470;49.322;7.218;2024-02-15T12:55:14;98720.59;;;22.58;50.40
18275;BME280;19470;49.322;7.218;2024-02-15T12:57:42;98717.59;;;22.51;51.51
18275;BME280;19470;49.322;7.218;2024-02-15T13:00:11;98715.38;;;22.35;50.93
18275;BME280;19470;49.322;7.218;2024-02-15T13:02:43;98701.09;;;22.17;50.66
18275;BME280;19470;49.322;7.218;2024-02-15T13:05:10;98702.19;;;22.25;51.05
18275;BME280;19470;49.322;7.218;2024-02-15T13:07:37;98690.44;;;22.04;51.79
18275;BME280;19470;49.322;7.218;2024-02-15T13:10:04;98692.84;;;22.31;51.75
18275;BME280;19470;49.322;7.218;2024-02-15T13:12:34;98691.56;;;22.46;51.23
18275;BME280;19470;49.322;7.218;2024-02-15T13:15:02;98693.06;;;21.52;52.91